sensor_id;sensor_type;location;lat;lon;timestamp;P1;durP1;ratioP1;P2;durP2;ratioP2
61806;SDS011;47726;52.766;6.606;2023-04-01T00:01:58;6.72;;;4.57;;
61806;SDS011;47726;52.766;6.606;2023-04-01T00:04:23;9.77;;;4.60;;
61806;SDS011;47726;52.766;6.606;2023-04-01T00:06:49;8.00;;;4.50;;
61806;SDS011;47726;52.766;6.606;2023-04-01T00:09:15;7.05;;;4.47;;
61806;SDS011;47726;52.766;6.606;2023-04-01T00:11:40;5.80;;;3.72;;
61806;SDS011;47726;52.766;6.606;2023-04-01T00:14:06;7.35;;;3.97;;
61806;SDS011;47726;52.766;6.606;2023-04-01T00:16:32;5.10;;;4.00;;
61806;SDS011;47726;52.766;6.606;2023-04-01T00:18:58;5.57;;;4.10;;
61806;SDS011;47726;52.766;6.606;2023-04-01T00:21:25;6.65;;;3.85;;
61806;SDS011;47726;52.766;6.606;2023-04-01T00:23:51;5.45;;;3.30;;
61806;SDS011;47726;52.766;6.606;2023-04-01T00:26:17;3.50;;;3.20;;
61806;SDS011;47726;52.766;6.606;2023-04-01T00:28:45;4.03;;;3.33;;
61806;SDS011;47726;52.766;6.606;2023-04-01T00:31:11;6.40;;;3.50;;
61806;SDS011;47726;52.766;6.606;2023-04-01T00:33:38;6.78;;;3.42;;
61806;SDS011;47726;52.766;6.606;2023-04-01T00:36:11;4.57;;;3.58;;
61806;SDS011;47726;52.766;6.606;2023-04-01T00:38:42;5.57;;;3.25;;
61806;SDS011;47726;52.766;6.606;2023-04-01T00:41:08;3.90;;;3.45;;
61806;SDS011;47726;52.766;6.606;2023-04-01T00:43:44;4.72;;;3.50;;
61806;SDS011;47726;52.766;6.606;2023-04-01T00:46:12;5.63;;;3.60;;
61806;SDS011;47726;52.766;6.606;2023-04-01T00:48:39;5.70;;;4.05;;
61806;SDS011;47726;52.766;6.606;2023-04-01T00:51:20;4.13;;;3.72;;
61806;SDS011;47726;52.766;6.606;2023-04-01T00:53:50;7.22;;;4.50;;
61806;SDS011;47726;52.766;6.606;2023-04-01T00:58:49;6.50;;;4.30;;
61806;SDS011;47726;52.766;6.606;2023-04-01T01:03:46;6.22;;;4.30;;
61806;SDS011;47726;52.766;6.606;2023-04-01T01:08:46;5.78;;;4.03;;
61806;SDS011;47726;52.766;6.606;2023-04-01T01:14:08;6.57;;;3.78;;
61806;SDS011;47726;52.766;6.606;2023-04-01T01:16:54;6.57;;;3.72;;
61806;SDS011;47726;52.766;6.606;2023-04-01T01:22:23;6.57;;;3.72;;
61806;SDS011;47726;52.766;6.606;2023-04-01T01:27:49;6.18;;;3.72;;
61806;SDS011;47726;52.766;6.606;2023-04-01T01:30:31;6.78;;;4.10;;
61806;SDS011;47726;52.766;6.606;2023-04-01T01:35:59;5.63;;;3.85;;
61806;SDS011;47726;52.766;6.606;2023-04-01T01:38:31;5.13;;;3.88;;
61806;SDS011;47726;52.766;6.606;2023-04-01T01:40:59;7.90;;;4.20;;
61806;SDS011;47726;52.766;6.606;2023-04-01T01:43:30;6.32;;;4.00;;
61806;SDS011;47726;52.766;6.606;2023-04-01T01:45:58;5.75;;;3.70;;
61806;SDS011;47726;52.766;6.606;2023-04-01T01:48:27;6.40;;;3.92;;
61806;SDS011;47726;52.766;6.606;2023-04-01T01:50:56;5.50;;;3.60;;
61806;SDS011;47726;52.766;6.606;2023-04-01T01:53:22;5.32;;;3.60;;
61806;SDS011;47726;52.766;6.606;2023-04-01T01:55:47;5.82;;;3.80;;
61806;SDS011;47726;52.766;6.606;2023-04-01T02:00:44;5.35;;;3.67;;
61806;SDS011;47726;52.766;6.606;2023-04-01T02:03:13;5.25;;;3.60;;
61806;SDS011;47726;52.766;6.606;2023-04-01T02:05:41;6.85;;;3.53;;
61806;SDS011;47726;52.766;6.606;2023-04-01T02:08:09;5.47;;;3.80;;
61806;SDS011;47726;52.766;6.606;2023-04-01T02:10:45;4.90;;;3.65;;
61806;SDS011;47726;52.766;6.606;2023-04-01T02:13:18;4.28;;;3.60;;
61806;SDS011;47726;52.766;6.606;2023-04-01T02:15:50;5.30;;;3.83;;
61806;SDS011;47726;52.766;6.606;2023-04-01T02:18:20;5.82;;;3.90;;
61806;SDS011;47726;52.766;6.606;2023-04-01T02:20:47;7.05;;;4.30;;
61806;SDS011;47726;52.766;6.606;2023-04-01T02:23:14;6.93;;;4.00;;
61806;SDS011;47726;52.766;6.606;2023-04-01T02:25:40;6.43;;;4.18;;
61806;SDS011;47726;52.766;6.606;2023-04-01T02:28:07;5.85;;;4.30;;
61806;SDS011;47726;52.766;6.606;2023-04-01T02:30:35;4.68;;;4.10;;
61806;SDS011;47726;52.766;6.606;2023-04-01T02:33:03;5.38;;;4.07;;
61806;SDS011;47726;52.766;6.606;2023-04-01T02:35:30;6.05;;;4.43;;
61806;SDS011;47726;52.766;6.606;2023-04-01T02:37:59;5.53;;;3.92;;
61806;SDS011;47726;52.766;6.606;2023-04-01T02:40:26;4.70;;;4.13;;
61806;SDS011;47726;52.766;6.606;2023-04-01T02:42:51;5.28;;;3.97;;
61806;SDS011;47726;52.766;6.606;2023-04-01T02:45:17;5.63;;;4.22;;
61806;SDS011;47726;52.766;6.606;2023-04-01T02:47:43;5.13;;;3.95;;
61806;SDS011;47726;52.766;6.606;2023-04-01T02:50:08;4.68;;;3.90;;
61806;SDS011;47726;52.766;6.606;2023-04-01T02:52:34;4.40;;;3.53;;
61806;SDS011;47726;52.766;6.606;2023-04-01T02:55:00;5.00;;;4.10;;
61806;SDS011;47726;52.766;6.606;2023-04-01T02:57:26;4.38;;;3.80;;
61806;SDS011;47726;52.766;6.606;2023-04-01T02:59:51;5.55;;;4.05;;
61806;SDS011;47726;52.766;6.606;2023-04-01T03:02:17;6.75;;;4.03;;
61806;SDS011;47726;52.766;6.606;2023-04-01T03:04:43;5.13;;;4.10;;
61806;SDS011;47726;52.766;6.606;2023-04-01T03:07:09;5.72;;;4.00;;
61806;SDS011;47726;52.766;6.606;2023-04-01T03:09:36;5.00;;;4.00;;
61806;SDS011;47726;52.766;6.606;2023-04-01T03:12:02;4.82;;;4.32;;
61806;SDS011;47726;52.766;6.606;2023-04-01T03:14:28;6.18;;;4.10;;
61806;SDS011;47726;52.766;6.606;2023-04-01T03:16:53;5.05;;;4.20;;
61806;SDS011;47726;52.766;6.606;2023-04-01T03:19:19;5.55;;;4.35;;
61806;SDS011;47726;52.766;6.606;2023-04-01T03:21:45;4.88;;;4.15;;
61806;SDS011;47726;52.766;6.606;2023-04-01T03:24:11;5.88;;;4.30;;
61806;SDS011;47726;52.766;6.606;2023-04-01T03:26:36;6.03;;;4.20;;
61806;SDS011;47726;52.766;6.606;2023-04-01T03:29:02;5.65;;;4.50;;
61806;SDS011;47726;52.766;6.606;2023-04-01T03:31:27;5.55;;;4.35;;
61806;SDS011;47726;52.766;6.606;2023-04-01T03:33:53;7.00;;;4.38;;
61806;SDS011;47726;52.766;6.606;2023-04-01T03:36:18;5.60;;;4.72;;
61806;SDS011;47726;52.766;6.606;2023-04-01T03:38:44;6.40;;;5.00;;
61806;SDS011;47726;52.766;6.606;2023-04-01T03:41:14;6.05;;;4.80;;
61806;SDS011;47726;52.766;6.606;2023-04-01T03:43:41;5.82;;;4.70;;
61806;SDS011;47726;52.766;6.606;2023-04-01T03:46:06;7.60;;;5.28;;
61806;SDS011;47726;52.766;6.606;2023-04-01T03:48:32;7.13;;;4.78;;
61806;SDS011;47726;52.766;6.606;2023-04-01T03:50:57;6.72;;;5.60;;
61806;SDS011;47726;52.766;6.606;2023-04-01T03:53:23;8.15;;;5.63;;
61806;SDS011;47726;52.766;6.606;2023-04-01T03:55:49;7.70;;;5.38;;
61806;SDS011;47726;52.766;6.606;2023-04-01T03:58:16;8.50;;;5.55;;
61806;SDS011;47726;52.766;6.606;2023-04-01T04:00:42;8.07;;;5.65;;
61806;SDS011;47726;52.766;6.606;2023-04-01T04:03:08;7.32;;;5.70;;
61806;SDS011;47726;52.766;6.606;2023-04-01T04:05:33;6.80;;;5.53;;
61806;SDS011;47726;52.766;6.606;2023-04-01T04:07:59;6.65;;;5.18;;
61806;SDS011;47726;52.766;6.606;2023-04-01T04:10:24;6.95;;;5.38;;
61806;SDS011;47726;52.766;6.606;2023-04-01T04:12:50;7.43;;;5.50;;
61806;SDS011;47726;52.766;6.606;2023-04-01T04:15:17;7.60;;;5.68;;
61806;SDS011;47726;52.766;6.606;2023-04-01T04:17:43;7.63;;;5.82;;
61806;SDS011;47726;52.766;6.606;2023-04-01T04:20:10;8.18;;;5.85;;
61806;SDS011;47726;52.766;6.606;2023-04-01T04:22:35;7.13;;;5.47;;
61806;SDS011;47726;52.766;6.606;2023-04-01T04:25:01;7.03;;;5.68;;
61806;SDS011;47726;52.766;6.606;2023-04-01T04:27:26;6.47;;;5.30;;
61806;SDS011;47726;52.766;6.606;2023-04-01T04:29:52;8.32;;;5.93;;
61806;SDS011;47726;52.766;6.606;2023-04-01T04:32:17;9.13;;;6.55;;
61806;SDS011;47726;52.766;6.606;2023-04-01T04:34:43;7.57;;;6.05;;
61806;SDS011;47726;52.766;6.606;2023-04-01T04:37:09;8.95;;;6.10;;
61806;SDS011;47726;52.766;6.606;2023-04-01T04:39:34;8.52;;;6.20;;
61806;SDS011;47726;52.766;6.606;2023-04-01T04:42:00;8.48;;;6.32;;
61806;SDS011;47726;52.766;6.606;2023-04-01T04:44:25;9.32;;;6.95;;
61806;SDS011;47726;52.766;6.606;2023-04-01T04:46:51;8.50;;;5.90;;
61806;SDS011;47726;52.766;6.606;2023-04-01T04:49:16;10.80;;;6.88;;
61806;SDS011;47726;52.766;6.606;2023-04-01T04:51:42;9.00;;;6.20;;
61806;SDS011;47726;52.766;6.606;2023-04-01T04:54:08;9.43;;;6.43;;
61806;SDS011;47726;52.766;6.606;2023-04-01T04:56:33;7.95;;;6.03;;
61806;SDS011;47726;52.766;6.606;2023-04-01T04:59:00;9.43;;;6.80;;
61806;SDS011;47726;52.766;6.606;2023-04-01T05:01:26;9.13;;;6.82;;
61806;SDS011;47726;52.766;6.606;2023-04-01T05:03:52;9.65;;;6.97;;
61806;SDS011;47726;52.766;6.606;2023-04-01T05:06:18;9.00;;;7.20;;
61806;SDS011;47726;52.766;6.606;2023-04-01T05:08:44;8.82;;;6.32;;
61806;SDS011;47726;52.766;6.606;2023-04-01T05:11:12;9.07;;;6.88;;
61806;SDS011;47726;52.766;6.606;2023-04-01T05:13:39;10.68;;;7.22;;
61806;SDS011;47726;52.766;6.606;2023-04-01T05:16:07;8.98;;;6.43;;
61806;SDS011;47726;52.766;6.606;2023-04-01T05:18:34;9.20;;;7.00;;
61806;SDS011;47726;52.766;6.606;2023-04-01T05:21:00;10.63;;;6.97;;
61806;SDS011;47726;52.766;6.606;2023-04-01T05:23:25;9.23;;;6.70;;
61806;SDS011;47726;52.766;6.606;2023-04-01T05:25:51;8.48;;;6.45;;
61806;SDS011;47726;52.766;6.606;2023-04-01T05:28:18;7.88;;;6.30;;
61806;SDS011;47726;52.766;6.606;2023-04-01T05:30:44;7.72;;;6.28;;
61806;SDS011;47726;52.766;6.606;2023-04-01T05:33:10;7.97;;;6.30;;
61806;SDS011;47726;52.766;6.606;2023-04-01T05:35:37;7.25;;;5.72;;
61806;SDS011;47726;52.766;6.606;2023-04-01T05:38:05;8.68;;;6.05;;
61806;SDS011;47726;52.766;6.606;2023-04-01T05:40:34;9.13;;;6.88;;
61806;SDS011;47726;52.766;6.606;2023-04-01T05:43:00;8.48;;;6.68;;
61806;SDS011;47726;52.766;6.606;2023-04-01T05:45:25;9.00;;;6.85;;
61806;SDS011;47726;52.766;6.606;2023-04-01T05:47:52;10.43;;;7.68;;
61806;SDS011;47726;52.766;6.606;2023-04-01T05:50:17;10.05;;;7.65;;
61806;SDS011;47726;52.766;6.606;2023-04-01T05:52:43;10.25;;;7.75;;
61806;SDS011;47726;52.766;6.606;2023-04-01T05:55:10;10.55;;;7.90;;
61806;SDS011;47726;52.766;6.606;2023-04-01T05:57:35;11.68;;;9.25;;
61806;SDS011;47726;52.766;6.606;2023-04-01T06:00:02;11.43;;;8.55;;
61806;SDS011;47726;52.766;6.606;2023-04-01T06:02:29;12.45;;;9.40;;
61806;SDS011;47726;52.766;6.606;2023-04-01T06:04:58;12.77;;;9.77;;
61806;SDS011;47726;52.766;6.606;2023-04-01T06:07:36;13.77;;;9.53;;
61806;SDS011;47726;52.766;6.606;2023-04-01T06:10:01;14.32;;;10.20;;
61806;SDS011;47726;52.766;6.606;2023-04-01T06:12:41;14.35;;;10.65;;
61806;SDS011;47726;52.766;6.606;2023-04-01T06:15:33;16.55;;;11.95;;
61806;SDS011;47726;52.766;6.606;2023-04-01T06:18:08;14.65;;;11.25;;
61806;SDS011;47726;52.766;6.606;2023-04-01T06:32:12;13.35;;;9.90;;
61806;SDS011;47726;52.766;6.606;2023-04-01T06:51:18;15.38;;;12.00;;
61806;SDS011;47726;52.766;6.606;2023-04-01T06:56:38;14.70;;;11.10;;
61806;SDS011;47726;52.766;6.606;2023-04-01T06:59:15;16.77;;;11.38;;
61806;SDS011;47726;52.766;6.606;2023-04-01T07:04:22;16.23;;;12.20;;
61806;SDS011;47726;52.766;6.606;2023-04-01T07:09:41;13.43;;;11.00;;
61806;SDS011;47726;52.766;6.606;2023-04-01T07:12:30;13.32;;;10.07;;
61806;SDS011;47726;52.766;6.606;2023-04-01T07:15:25;14.60;;;11.90;;
61806;SDS011;47726;52.766;6.606;2023-04-01T07:18:05;16.13;;;12.98;;
61806;SDS011;47726;52.766;6.606;2023-04-01T07:20:44;13.68;;;10.52;;
61806;SDS011;47726;52.766;6.606;2023-04-01T07:23:22;14.38;;;11.30;;
61806;SDS011;47726;52.766;6.606;2023-04-01T07:25:58;13.15;;;10.80;;
61806;SDS011;47726;52.766;6.606;2023-04-01T07:28:26;14.18;;;10.88;;
61806;SDS011;47726;52.766;6.606;2023-04-01T07:51:07;12.30;;;9.80;;
61806;SDS011;47726;52.766;6.606;2023-04-01T07:56:55;12.85;;;9.15;;
61806;SDS011;47726;52.766;6.606;2023-04-01T07:59:39;11.13;;;7.78;;
61806;SDS011;47726;52.766;6.606;2023-04-01T08:08:06;11.85;;;8.57;;
61806;SDS011;47726;52.766;6.606;2023-04-01T08:13:44;9.43;;;6.50;;
61806;SDS011;47726;52.766;6.606;2023-04-01T08:21:43;7.85;;;5.95;;
61806;SDS011;47726;52.766;6.606;2023-04-01T08:24:27;8.43;;;6.20;;
61806;SDS011;47726;52.766;6.606;2023-04-01T08:26:55;7.18;;;5.47;;
61806;SDS011;47726;52.766;6.606;2023-04-01T08:34:32;7.10;;;5.13;;
61806;SDS011;47726;52.766;6.606;2023-04-01T08:37:07;7.30;;;4.72;;
61806;SDS011;47726;52.766;6.606;2023-04-01T08:39:41;6.65;;;4.60;;
61806;SDS011;47726;52.766;6.606;2023-04-01T08:51:43;7.60;;;5.05;;
61806;SDS011;47726;52.766;6.606;2023-04-01T08:54:36;6.57;;;4.90;;
61806;SDS011;47726;52.766;6.606;2023-04-01T08:57:15;6.70;;;4.40;;
61806;SDS011;47726;52.766;6.606;2023-04-01T09:08:28;8.88;;;5.88;;
61806;SDS011;47726;52.766;6.606;2023-04-01T09:22:50;6.97;;;3.47;;
61806;SDS011;47726;52.766;6.606;2023-04-01T09:28:20;5.75;;;3.35;;
61806;SDS011;47726;52.766;6.606;2023-04-01T09:36:46;5.65;;;4.30;;
61806;SDS011;47726;52.766;6.606;2023-04-01T09:42:29;10.43;;;6.10;;
61806;SDS011;47726;52.766;6.606;2023-04-01T09:45:16;8.87;;;6.07;;
61806;SDS011;47726;52.766;6.606;2023-04-01T09:48:02;9.43;;;6.38;;
61806;SDS011;47726;52.766;6.606;2023-04-01T09:50:50;9.10;;;6.60;;
61806;SDS011;47726;52.766;6.606;2023-04-01T09:53:44;11.10;;;6.75;;
61806;SDS011;47726;52.766;6.606;2023-04-01T10:04:40;10.27;;;7.95;;
61806;SDS011;47726;52.766;6.606;2023-04-01T10:07:38;11.40;;;8.15;;
61806;SDS011;47726;52.766;6.606;2023-04-01T10:27:47;9.35;;;7.47;;
61806;SDS011;47726;52.766;6.606;2023-04-01T11:12:46;10.02;;;7.68;;
61806;SDS011;47726;52.766;6.606;2023-04-01T11:22:08;9.07;;;7.57;;
61806;SDS011;47726;52.766;6.606;2023-04-01T11:27:53;11.90;;;9.93;;
61806;SDS011;47726;52.766;6.606;2023-04-01T11:36:37;8.95;;;7.60;;
61806;SDS011;47726;52.766;6.606;2023-04-01T11:39:36;7.28;;;6.53;;
61806;SDS011;47726;52.766;6.606;2023-04-01T11:47:52;9.30;;;7.70;;
61806;SDS011;47726;52.766;6.606;2023-04-01T11:50:36;7.55;;;6.38;;
61806;SDS011;47726;52.766;6.606;2023-04-01T11:53:09;7.93;;;6.38;;
61806;SDS011;47726;52.766;6.606;2023-04-01T12:07:08;7.78;;;5.70;;
61806;SDS011;47726;52.766;6.606;2023-04-01T12:10:20;6.70;;;5.93;;
61806;SDS011;47726;52.766;6.606;2023-04-01T12:12:59;5.78;;;5.22;;
61806;SDS011;47726;52.766;6.606;2023-04-01T12:23:58;5.60;;;5.00;;
61806;SDS011;47726;52.766;6.606;2023-04-01T12:26:35;5.75;;;4.72;;
61806;SDS011;47726;52.766;6.606;2023-04-01T12:32:29;4.72;;;4.22;;
61806;SDS011;47726;52.766;6.606;2023-04-01T12:35:20;4.80;;;4.30;;
61806;SDS011;47726;52.766;6.606;2023-04-01T12:46:38;4.57;;;4.13;;
61806;SDS011;47726;52.766;6.606;2023-04-01T12:52:04;4.20;;;3.80;;
61806;SDS011;47726;52.766;6.606;2023-04-01T12:57:26;4.10;;;3.70;;
61806;SDS011;47726;52.766;6.606;2023-04-01T13:03:35;4.45;;;3.60;;
61806;SDS011;47726;52.766;6.606;2023-04-01T13:06:21;3.67;;;3.38;;
61806;SDS011;47726;52.766;6.606;2023-04-01T13:09:07;3.88;;;3.47;;
61806;SDS011;47726;52.766;6.606;2023-04-01T13:22:48;4.43;;;3.83;;
61806;SDS011;47726;52.766;6.606;2023-04-01T13:28:12;3.47;;;3.17;;
61806;SDS011;47726;52.766;6.606;2023-04-01T13:41:31;3.65;;;3.35;;
61806;SDS011;47726;52.766;6.606;2023-04-01T13:44:11;4.47;;;4.07;;
61806;SDS011;47726;52.766;6.606;2023-04-01T13:55:36;6.63;;;5.18;;
61806;SDS011;47726;52.766;6.606;2023-04-01T13:58:37;9.60;;;6.50;;
61806;SDS011;47726;52.766;6.606;2023-04-01T14:04:24;4.85;;;4.30;;
61806;SDS011;47726;52.766;6.606;2023-04-01T14:07:18;5.00;;;4.50;;
61806;SDS011;47726;52.766;6.606;2023-04-01T14:16:03;4.13;;;3.72;;
61806;SDS011;47726;52.766;6.606;2023-04-01T14:30:04;4.28;;;3.65;;
61806;SDS011;47726;52.766;6.606;2023-04-01T14:47:14;4.95;;;3.85;;
61806;SDS011;47726;52.766;6.606;2023-04-01T14:49:46;5.18;;;4.40;;
61806;SDS011;47726;52.766;6.606;2023-04-01T14:54:56;4.13;;;3.70;;
61806;SDS011;47726;52.766;6.606;2023-04-01T14:57:30;3.88;;;3.55;;
61806;SDS011;47726;52.766;6.606;2023-04-01T15:05:49;4.15;;;3.75;;
61806;SDS011;47726;52.766;6.606;2023-04-01T15:08:23;4.43;;;4.03;;
61806;SDS011;47726;52.766;6.606;2023-04-01T15:11:11;5.93;;;4.28;;
61806;SDS011;47726;52.766;6.606;2023-04-01T15:17:01;6.63;;;4.68;;
61806;SDS011;47726;52.766;6.606;2023-04-01T15:27:44;3.75;;;3.45;;
61806;SDS011;47726;52.766;6.606;2023-04-01T15:38:27;3.90;;;3.60;;
61806;SDS011;47726;52.766;6.606;2023-04-01T15:43:53;4.32;;;3.50;;
61806;SDS011;47726;52.766;6.606;2023-04-01T16:03:08;3.65;;;3.28;;
61806;SDS011;47726;52.766;6.606;2023-04-01T16:06:01;3.00;;;2.80;;
61806;SDS011;47726;52.766;6.606;2023-04-01T16:08:55;3.30;;;3.00;;
61806;SDS011;47726;52.766;6.606;2023-04-01T16:22:37;2.95;;;2.65;;
61806;SDS011;47726;52.766;6.606;2023-04-01T16:30:35;2.83;;;2.63;;
61806;SDS011;47726;52.766;6.606;2023-04-01T16:35:54;2.92;;;2.72;;
61806;SDS011;47726;52.766;6.606;2023-04-01T16:38:26;3.25;;;2.95;;
61806;SDS011;47726;52.766;6.606;2023-04-01T16:41:20;2.97;;;2.78;;
61806;SDS011;47726;52.766;6.606;2023-04-01T16:43:59;3.00;;;2.70;;
61806;SDS011;47726;52.766;6.606;2023-04-01T16:46:53;3.17;;;2.88;;
61806;SDS011;47726;52.766;6.606;2023-04-01T16:49:32;3.47;;;2.90;;
61806;SDS011;47726;52.766;6.606;2023-04-01T16:54:39;3.25;;;2.95;;
61806;SDS011;47726;52.766;6.606;2023-04-01T17:00:30;3.20;;;2.90;;
61806;SDS011;47726;52.766;6.606;2023-04-01T17:17:01;3.40;;;3.10;;
61806;SDS011;47726;52.766;6.606;2023-04-01T17:20:08;3.65;;;3.35;;
61806;SDS011;47726;52.766;6.606;2023-04-01T17:22:48;3.60;;;3.30;;
61806;SDS011;47726;52.766;6.606;2023-04-01T17:27:57;4.30;;;3.58;;
61806;SDS011;47726;52.766;6.606;2023-04-01T17:30:41;4.10;;;3.70;;
61806;SDS011;47726;52.766;6.606;2023-04-01T17:36:04;4.45;;;3.90;;
61806;SDS011;47726;52.766;6.606;2023-04-01T17:49:54;5.28;;;4.30;;
61806;SDS011;47726;52.766;6.606;2023-04-01T17:52:37;5.30;;;4.47;;
61806;SDS011;47726;52.766;6.606;2023-04-01T17:55:26;6.35;;;4.97;;
61806;SDS011;47726;52.766;6.606;2023-04-01T17:57:56;6.47;;;5.00;;
61806;SDS011;47726;52.766;6.606;2023-04-01T18:08:51;8.30;;;5.40;;
61806;SDS011;47726;52.766;6.606;2023-04-01T18:14:22;8.23;;;5.45;;
61806;SDS011;47726;52.766;6.606;2023-04-01T18:17:21;10.32;;;5.82;;
61806;SDS011;47726;52.766;6.606;2023-04-01T18:19:54;7.40;;;5.22;;
61806;SDS011;47726;52.766;6.606;2023-04-01T18:22:47;9.80;;;6.07;;
61806;SDS011;47726;52.766;6.606;2023-04-01T18:28:25;9.48;;;5.63;;
61806;SDS011;47726;52.766;6.606;2023-04-01T18:31:32;9.63;;;6.55;;
61806;SDS011;47726;52.766;6.606;2023-04-01T18:34:06;10.65;;;6.53;;
61806;SDS011;47726;52.766;6.606;2023-04-01T18:36:51;8.68;;;5.85;;
61806;SDS011;47726;52.766;6.606;2023-04-01T18:41:57;7.93;;;5.03;;
61806;SDS011;47726;52.766;6.606;2023-04-01T18:44:57;7.35;;;5.63;;
61806;SDS011;47726;52.766;6.606;2023-04-01T18:47:41;8.63;;;5.50;;
61806;SDS011;47726;52.766;6.606;2023-04-01T18:53:09;7.57;;;5.82;;
61806;SDS011;47726;52.766;6.606;2023-04-01T18:55:51;7.80;;;5.43;;
61806;SDS011;47726;52.766;6.606;2023-04-01T19:01:05;8.20;;;6.03;;
61806;SDS011;47726;52.766;6.606;2023-04-01T19:04:00;7.82;;;6.15;;
61806;SDS011;47726;52.766;6.606;2023-04-01T19:06:55;7.90;;;5.90;;
61806;SDS011;47726;52.766;6.606;2023-04-01T19:29:06;9.13;;;6.93;;
61806;SDS011;47726;52.766;6.606;2023-04-01T19:31:58;10.10;;;7.00;;
61806;SDS011;47726;52.766;6.606;2023-04-01T19:34:48;10.13;;;7.07;;
61806;SDS011;47726;52.766;6.606;2023-04-01T19:37:39;9.18;;;6.40;;
61806;SDS011;47726;52.766;6.606;2023-04-01T19:42:50;10.40;;;7.40;;
61806;SDS011;47726;52.766;6.606;2023-04-01T19:50:56;12.35;;;7.90;;
61806;SDS011;47726;52.766;6.606;2023-04-01T19:53:31;11.82;;;7.47;;
61806;SDS011;47726;52.766;6.606;2023-04-01T19:56:23;11.73;;;7.90;;
61806;SDS011;47726;52.766;6.606;2023-04-01T19:58:54;10.88;;;7.47;;
61806;SDS011;47726;52.766;6.606;2023-04-01T20:04:36;10.80;;;7.40;;
61806;SDS011;47726;52.766;6.606;2023-04-01T20:07:04;11.90;;;7.75;;
61806;SDS011;47726;52.766;6.606;2023-04-01T20:09:41;13.00;;;7.53;;
61806;SDS011;47726;52.766;6.606;2023-04-01T20:17:58;11.90;;;7.97;;
61806;SDS011;47726;52.766;6.606;2023-04-01T20:20:28;10.98;;;7.40;;
61806;SDS011;47726;52.766;6.606;2023-04-01T20:25:52;13.00;;;7.68;;
61806;SDS011;47726;52.766;6.606;2023-04-01T20:28:25;11.43;;;7.63;;
61806;SDS011;47726;52.766;6.606;2023-04-01T20:33:37;13.00;;;7.88;;
61806;SDS011;47726;52.766;6.606;2023-04-01T20:44:19;12.35;;;7.85;;
61806;SDS011;47726;52.766;6.606;2023-04-01T20:49:57;12.65;;;7.68;;
61806;SDS011;47726;52.766;6.606;2023-04-01T20:52:46;12.35;;;8.02;;
61806;SDS011;47726;52.766;6.606;2023-04-01T20:55:23;11.60;;;8.57;;
61806;SDS011;47726;52.766;6.606;2023-04-01T21:09:24;14.57;;;8.40;;
61806;SDS011;47726;52.766;6.606;2023-04-01T21:20:34;13.68;;;8.68;;
61806;SDS011;47726;52.766;6.606;2023-04-01T21:25:47;12.73;;;8.55;;
61806;SDS011;47726;52.766;6.606;2023-04-01T21:31:14;16.08;;;9.57;;
61806;SDS011;47726;52.766;6.606;2023-04-01T21:39:42;13.60;;;8.48;;
61806;SDS011;47726;52.766;6.606;2023-04-01T21:59:23;13.25;;;8.90;;
61806;SDS011;47726;52.766;6.606;2023-04-01T22:10:31;13.68;;;9.05;;
61806;SDS011;47726;52.766;6.606;2023-04-01T22:13:16;13.13;;;8.63;;
61806;SDS011;47726;52.766;6.606;2023-04-01T22:15:52;15.73;;;8.75;;
61806;SDS011;47726;52.766;6.606;2023-04-01T22:24:17;12.43;;;8.70;;
61806;SDS011;47726;52.766;6.606;2023-04-01T22:27:05;14.07;;;8.73;;
61806;SDS011;47726;52.766;6.606;2023-04-01T22:30:04;15.00;;;9.27;;
61806;SDS011;47726;52.766;6.606;2023-04-01T22:32:56;14.38;;;8.88;;
61806;SDS011;47726;52.766;6.606;2023-04-01T22:40:50;14.10;;;9.10;;
61806;SDS011;47726;52.766;6.606;2023-04-01T22:43:37;16.33;;;8.45;;
61806;SDS011;47726;52.766;6.606;2023-04-01T22:51:47;15.45;;;8.75;;
61806;SDS011;47726;52.766;6.606;2023-04-01T22:54:28;15.95;;;8.60;;
61806;SDS011;47726;52.766;6.606;2023-04-01T22:57:02;13.27;;;7.78;;
61806;SDS011;47726;52.766;6.606;2023-04-01T22:59:37;14.27;;;8.35;;
61806;SDS011;47726;52.766;6.606;2023-04-01T23:02:28;13.85;;;8.25;;
61806;SDS011;47726;52.766;6.606;2023-04-01T23:05:02;14.40;;;8.55;;
61806;SDS011;47726;52.766;6.606;2023-04-01T23:10:19;14.93;;;8.90;;
61806;SDS011;47726;52.766;6.606;2023-04-01T23:12:53;14.07;;;8.73;;
61806;SDS011;47726;52.766;6.606;2023-04-01T23:15:22;14.43;;;7.90;;
61806;SDS011;47726;52.766;6.606;2023-04-01T23:29:19;12.20;;;7.88;;
61806;SDS011;47726;52.766;6.606;2023-04-01T23:31:47;10.50;;;7.45;;
61806;SDS011;47726;52.766;6.606;2023-04-01T23:34:22;12.55;;;7.70;;
61806;SDS011;47726;52.766;6.606;2023-04-01T23:37:04;11.85;;;7.90;;
61806;SDS011;47726;52.766;6.606;2023-04-01T23:39:36;12.25;;;7.13;;
61806;SDS011;47726;52.766;6.606;2023-04-01T23:42:22;11.57;;;7.38;;
61806;SDS011;47726;52.766;6.606;2023-04-01T23:45:01;11.75;;;7.38;;
61806;SDS011;47726;52.766;6.606;2023-04-01T23:47:30;11.18;;;7.15;;
61806;SDS011;47726;52.766;6.606;2023-04-01T23:49:59;12.18;;;7.20;;
61806;SDS011;47726;52.766;6.606;2023-04-01T23:52:30;11.63;;;6.97;;
61806;SDS011;47726;52.766;6.606;2023-04-01T23:55:08;10.45;;;6.38;;
61806;SDS011;47726;52.766;6.606;2023-04-01T23:57:42;10.20;;;6.72;;
